Time;durP1;ratioP1;P1;durP2;ratioP2;P2;SDS_P1;SDS_P2;PMS_P1;PMS_P2;Temp;Humidity;BMP_temperature;BMP_pressure;BME280_temperature;BME280_humidity;BME280_pressure;Samples;Min_cycle;Max_cycle;Signal;HPM_P1;HPM_P2
2021/11/05 00:00:30;;;;;;;;;2.00;2.00;;;;;11.16;62.18;101378.94;4957689;28;46174;-63
2021/11/05 00:02:57;;;;;;;;;5.00;3.75;;;;;11.15;62.20;101377.19;4957671;28;45365;-63
2021/11/05 00:05:24;;;;;;;;;3.00;3.00;;;;;11.14;62.18;101378.06;4957812;28;45506;-63
2021/11/05 00:07:50;;;;;;;;;7.25;4.50;;;;;11.11;62.27;101381.59;4956199;28;45475;-63
2021/11/05 00:10:16;;;;;;;;;4.25;4.25;;;;;11.18;62.30;101387.69;4956251;28;46111;-63
2021/11/05 00:12:41;;;;;;;;;3.25;3.25;;;;;11.17;62.23;101393.81;4957445;28;45256;-63
2021/11/05 00:15:07;;;;;;;;;6.50;2.75;;;;;11.16;62.26;101392.09;4957698;28;45483;-63
2021/11/05 00:17:33;;;;;;;;;2.00;2.00;;;;;11.17;62.28;101391.19;4957573;28;45225;-62
2021/11/05 00:19:58;;;;;;;;;4.00;3.00;;;;;11.19;62.25;101392.97;4957427;28;45418;-62
2021/11/05 00:22:24;;;;;;;;;4.00;3.00;;;;;11.20;62.17;101399.09;4957461;28;45207;-63
2021/11/05 00:24:49;;;;;;;;;2.75;2.50;;;;;11.21;62.18;101404.34;4958895;28;45297;-62
2021/11/05 00:27:15;;;;;;;;;3.00;3.00;;;;;11.22;62.24;101397.34;4960236;28;45303;-63
2021/11/05 00:29:42;;;;;;;;;22.00;18.50;;;;;11.21;62.31;101406.09;4960504;28;46078;-63
2021/11/05 00:32:09;;;;;;;;;2.50;2.50;;;;;11.20;62.38;101401.72;4960434;28;45290;-63
2021/11/05 00:34:34;;;;;;;;;4.75;3.50;;;;;11.19;62.20;101392.97;4966544;28;45328;-62
2021/11/05 00:36:59;;;;;;;;;5.75;4.25;;;;;11.17;62.16;101394.72;4960133;28;45293;-62
2021/11/05 00:39:25;;;;;;;;;5.00;4.25;;;;;11.16;62.32;101392.09;4960295;28;46403;-62
2021/11/05 00:41:50;;;;;;;;;6.75;4.00;;;;;11.17;62.37;101396.47;4960489;28;45233;-62
2021/11/05 00:44:16;;;;;;;;;6.00;4.00;;;;;11.15;62.25;101400.88;4959127;28;45396;-62
2021/11/05 00:46:41;;;;;;;;;5.00;4.00;;;;;11.13;62.28;101403.53;4960273;28;45221;-62
2021/11/05 00:49:06;;;;;;;;;6.25;5.00;;;;;11.12;62.35;101404.41;4970642;28;46089;-62
2021/11/05 00:51:32;;;;;;;;;4.00;3.00;;;;;11.13;62.27;101410.53;4979778;28;45259;-61
2021/11/05 00:53:57;;;;;;;;;5.75;4.00;;;;;11.13;62.39;101407.88;4979575;28;45457;-62
2021/11/05 00:56:23;;;;;;;;;3.50;3.50;;;;;11.13;62.25;101421.94;4976139;28;45402;-62
2021/11/05 00:58:48;;;;;;;;;3.00;3.00;;;;;11.08;62.21;101409.69;4959883;28;45328;-63
2021/11/05 01:01:14;;;;;;;;;9.25;3.00;;;;;11.05;62.25;101416.69;4958604;28;45362;-63
2021/11/05 01:03:40;;;;;;;;;10.75;9.25;;;;;11.10;62.37;101426.34;4960351;28;45419;-62
2021/11/05 01:06:05;;;;;;;;;4.25;3.50;;;;;11.08;62.35;101423.72;4960236;28;45352;-63
2021/11/05 01:08:31;;;;;;;;;4.00;3.00;;;;;11.08;62.26;101433.34;4959794;28;46102;-63
2021/11/05 01:10:56;;;;;;;;;5.00;3.75;;;;;11.05;62.27;101424.56;4972097;28;45354;-63
2021/11/05 01:13:21;;;;;;;;;4.00;3.50;;;;;11.04;62.31;101421.97;4965574;28;45270;-62
2021/11/05 01:15:47;;;;;;;;;5.50;5.00;;;;;11.08;62.14;101433.34;4963175;28;45402;-62
2021/11/05 01:18:13;;;;;;;;;4.00;4.00;;;;;11.05;62.17;101443.00;4979294;28;46096;-62
2021/11/05 01:20:39;;;;;;;;;6.00;3.00;;;;;11.06;62.35;101446.50;4979340;28;45398;-63
2021/11/05 01:23:06;;;;;;;;;3.00;3.00;;;;;11.04;62.30;101440.38;4979324;28;45538;-62
2021/11/05 01:25:31;;;;;;;;;8.00;6.25;;;;;11.04;62.26;101450.91;4979084;28;45564;-63
2021/11/05 01:27:57;;;;;;;;;1.75;1.25;;;;;11.04;62.23;101445.63;4978996;28;46079;-63
2021/11/05 01:30:22;;;;;;;;;5.00;3.00;;;;;11.04;62.35;101445.63;4979243;28;45299;-62
2021/11/05 01:32:49;;;;;;;;;5.25;4.00;;;;;11.00;62.26;101444.78;4979453;28;45452;-62
2021/11/05 01:35:15;;;;;;;;;5.50;4.00;;;;;11.04;62.15;101449.16;4978681;28;45620;-62
2021/11/05 01:37:41;;;;;;;;;4.75;4.25;;;;;11.06;62.16;101449.16;4978365;28;46708;-62
2021/11/05 01:40:08;;;;;;;;;4.00;3.50;;;;;11.06;62.25;101452.63;4979038;28;45426;-63
2021/11/05 01:42:34;;;;;;;;;6.00;3.00;;;;;11.08;62.14;101451.75;4979197;28;45422;-63
2021/11/05 01:45:00;;;;;;;;;4.00;3.50;;;;;11.06;62.04;101450.00;4978931;28;45488;-62
2021/11/05 01:47:25;;;;;;;;;2.00;2.00;;;;;11.08;62.19;101464.91;4972196;28;46367;-62
2021/11/05 01:49:51;;;;;;;;;6.75;3.50;;;;;11.04;62.09;101445.63;4975766;28;45246;-62
2021/11/05 01:52:17;;;;;;;;;3.00;2.75;;;;;11.08;62.07;101457.03;4979207;28;45226;-63
2021/11/05 01:54:43;;;;;;;;;3.50;3.50;;;;;11.08;62.03;101465.81;4985385;28;45435;-62
2021/11/05 01:57:09;;;;;;;;;3.75;3.00;;;;;11.10;62.04;101465.78;4959167;28;47000;-63
2021/11/05 01:59:36;;;;;;;;;3.25;2.75;;;;;11.09;62.08;101461.41;4959229;28;45229;-63
2021/11/05 02:02:04;;;;;;;;;7.25;4.00;;;;;11.10;62.09;101466.66;4959648;28;45320;-62
2021/11/05 02:04:30;;;;;;;;;4.50;4.50;;;;;11.11;61.92;101467.53;4959182;28;45356;-63
2021/11/05 02:06:56;;;;;;;;;4.25;2.75;;;;;11.12;62.07;101470.16;4959337;28;46090;-63
2021/11/05 02:09:27;;;;;;;;;3.25;2.25;;;;;11.11;61.86;101467.53;4971550;28;45295;-63
2021/11/05 02:11:57;;;;;;;;;5.25;4.00;;;;;11.13;62.09;101474.53;4970605;28;45276;-62
2021/11/05 02:14:25;;;;;;;;;5.00;2.25;;;;;11.12;61.97;101469.25;4977343;27;45282;-62
2021/11/05 02:16:54;;;;;;;;;4.75;2.50;;;;;11.13;61.97;101482.44;4977383;28;48194;-63
2021/11/05 02:19:21;;;;;;;;;6.50;4.50;;;;;11.13;61.88;101485.06;4978458;28;45327;-62
2021/11/05 02:21:49;;;;;;;;;6.75;4.75;;;;;11.11;62.03;101484.19;4994008;28;45414;-62
2021/11/05 02:24:16;;;;;;;;;6.25;3.00;;;;;11.10;62.11;101485.06;4978426;28;45518;-62
2021/11/05 02:26:43;;;;;;;;;5.75;4.00;;;;;11.12;61.88;101488.56;4978508;28;46292;-63
2021/11/05 02:29:10;;;;;;;;;4.25;2.50;;;;;11.11;61.93;101483.31;4978429;28;45388;-62
2021/11/05 02:31:36;;;;;;;;;5.75;5.75;;;;;11.09;62.01;101493.84;4977343;28;45395;-63
2021/11/05 02:34:02;;;;;;;;;5.75;2.75;;;;;11.05;61.75;101500.84;4978514;28;45547;-63
2021/11/05 02:36:29;;;;;;;;;6.50;4.00;;;;;11.06;61.97;101493.84;4978365;28;45210;-63
2021/11/05 02:38:55;;;;;;;;;4.75;3.50;;;;;11.03;62.00;101492.13;4970181;28;45367;-63
2021/11/05 02:41:21;;;;;;;;;5.75;4.00;;;;;11.03;62.00;101497.38;4972533;28;45371;-63
2021/11/05 02:43:48;;;;;;;;;4.75;4.25;;;;;11.02;61.99;101494.75;4978370;28;45421;-63
2021/11/05 02:46:14;;;;;;;;;3.50;1.75;;;;;11.02;62.01;101495.63;4978531;28;45650;-63
2021/11/05 02:48:39;;;;;;;;;5.75;3.50;;;;;11.03;61.94;101504.38;4967787;28;45611;-63
2021/11/05 02:51:05;;;;;;;;;4.50;4.50;;;;;11.02;61.87;101505.28;4977188;27;45282;-63
2021/11/05 02:53:31;;;;;;;;;2.50;2.00;;;;;11.01;61.94;101517.53;4977048;28;45494;-63
2021/11/05 02:55:57;;;;;;;;;6.50;4.75;;;;;10.99;62.03;101506.16;4975487;28;45531;-63
2021/11/05 02:58:23;;;;;;;;;3.00;3.00;;;;;10.98;62.17;101514.03;4957533;28;45266;-63
2021/11/05 03:00:49;;;;;;;;;4.00;2.00;;;;;10.96;61.99;101514.06;4958906;28;45591;-63
2021/11/05 03:03:16;;;;;;;;;7.50;3.75;;;;;10.95;62.02;101516.69;4957389;28;45371;-63
2021/11/05 03:05:41;;;;;;;;;3.00;3.00;;;;;10.93;61.89;101519.34;4958604;28;46229;-63
2021/11/05 03:08:08;;;;;;;;;4.00;2.00;;;;;10.94;61.88;101514.94;4957177;28;45323;-63
2021/11/05 03:10:34;;;;;;;;;4.75;3.25;;;;;10.92;61.92;101522.84;4957483;28;45308;-63
2021/11/05 03:13:03;;;;;;;;;3.00;3.00;;;;;10.94;61.82;101523.69;4958522;28;45261;-64
2021/11/05 03:15:29;;;;;;;;;2.75;2.00;;;;;10.94;61.90;101531.59;4956987;28;45336;-63
2021/11/05 03:17:56;;;;;;;;;4.00;3.50;;;;;10.96;61.79;101536.88;4957271;28;45367;-63
2021/11/05 03:20:22;;;;;;;;;3.50;3.00;;;;;10.95;61.97;101535.97;4958567;28;45352;-63
2021/11/05 03:22:48;;;;;;;;;5.00;4.00;;;;;10.95;61.80;101535.97;4958233;28;45442;-63
2021/11/05 03:25:14;;;;;;;;;3.75;3.00;;;;;10.94;61.90;101539.47;4958231;28;46539;-63
2021/11/05 03:27:41;;;;;;;;;4.50;3.75;;;;;10.97;61.85;101544.75;4958498;28;45252;-63
2021/11/05 03:30:08;;;;;;;;;4.50;3.50;;;;;10.98;61.88;101551.75;4958382;28;45246;-63
2021/11/05 03:32:34;;;;;;;;;3.00;3.00;;;;;10.96;61.93;101544.75;4958473;28;45286;-63
2021/11/05 03:35:00;;;;;;;;;5.75;5.50;;;;;10.99;61.85;101555.25;4957965;28;46328;-63
2021/11/05 03:37:26;;;;;;;;;5.00;3.75;;;;;10.97;61.93;101555.25;4956890;28;45436;-63
2021/11/05 03:39:51;;;;;;;;;6.00;5.00;;;;;10.99;61.90;101555.25;4951744;28;45333;-63
2021/11/05 03:42:17;;;;;;;;;4.25;3.00;;;;;10.97;61.85;101557.88;4958274;28;45300;-63
2021/11/05 03:44:43;;;;;;;;;4.00;4.00;;;;;10.98;61.91;101561.38;4957965;28;45970;-63
2021/11/05 03:47:08;;;;;;;;;4.50;3.00;;;;;11.00;61.79;101567.53;4958191;28;45404;-63
2021/11/05 03:49:34;;;;;;;;;2.00;2.00;;;;;10.98;61.86;101572.78;4970984;28;45308;-64
2021/11/05 03:51:59;;;;;;;;;5.25;5.25;;;;;11.00;61.58;101578.03;4976364;27;45409;-63
2021/11/05 03:54:25;;;;;;;;;4.50;3.00;;;;;10.99;61.78;101584.19;4987978;28;45208;-63
2021/11/05 03:56:51;;;;;;;;;3.50;3.25;;;;;10.98;61.69;101580.69;4957919;28;45325;-63
2021/11/05 03:59:17;;;;;;;;;4.00;3.00;;;;;10.98;61.81;101587.69;4957363;28;45292;-64
2021/11/05 04:01:42;;;;;;;;;5.50;3.50;;;;;10.96;61.51;101581.56;4961011;28;45311;-64
2021/11/05 04:04:09;;;;;;;;;4.00;3.00;;;;;10.97;61.59;101581.56;4960726;28;46860;-64
2021/11/05 04:06:35;;;;;;;;;6.00;4.50;;;;;10.98;61.71;101593.84;4960848;28;45344;-63
2021/11/05 04:09:00;;;;;;;;;4.25;2.75;;;;;10.98;61.66;101595.56;4960679;28;45317;-63
2021/11/05 04:11:26;;;;;;;;;4.25;4.25;;;;;10.98;61.82;101612.25;4960965;28;45311;-64
2021/11/05 04:13:51;;;;;;;;;3.00;3.00;;;;;10.95;61.65;101609.59;4960485;28;45303;-64
2021/11/05 04:16:17;;;;;;;;;4.25;4.25;;;;;10.96;61.80;101611.34;4960638;28;45307;-64
2021/11/05 04:18:42;;;;;;;;;1.00;1.00;;;;;10.92;61.68;101607.00;4960952;28;45454;-64
2021/11/05 04:21:08;;;;;;;;;3.50;2.75;;;;;10.96;61.73;101621.88;4960869;28;45223;-64
2021/11/05 04:23:34;;;;;;;;;4.50;3.25;;;;;10.97;61.70;101628.00;4959119;28;47020;-64
2021/11/05 04:26:00;;;;;;;;;4.25;2.50;;;;;10.97;61.70;101628.91;4960646;28;45491;-63
2021/11/05 04:28:25;;;;;;;;;6.00;4.00;;;;;10.94;61.86;101631.50;4960586;28;45159;-64
2021/11/05 04:30:50;;;;;;;;;4.50;4.00;;;;;10.96;61.63;101642.06;4960657;28;45253;-64
2021/11/05 04:33:16;;;;;;;;;4.00;4.00;;;;;10.95;61.66;101642.94;4960574;28;45542;-64
2021/11/05 04:35:42;;;;;;;;;7.00;3.75;;;;;10.93;61.92;101639.41;4960407;28;45410;-64
2021/11/05 04:38:07;;;;;;;;;6.50;2.50;;;;;10.94;61.69;101649.91;4960439;28;45257;-64
2021/11/05 04:40:33;;;;;;;;;4.25;2.00;;;;;10.96;61.73;101652.56;4960688;28;45216;-64
2021/11/05 04:42:59;;;;;;;;;4.00;4.00;;;;;10.92;61.82;101654.31;4960287;28;46425;-64
2021/11/05 04:45:24;;;;;;;;;3.50;3.00;;;;;10.94;61.66;101657.81;4949402;28;45268;-64
2021/11/05 04:47:50;;;;;;;;;4.25;3.00;;;;;10.95;61.93;101658.72;4970176;28;45296;-64
2021/11/05 04:50:16;;;;;;;;;4.50;4.50;;;;;10.92;61.73;101651.69;4980205;28;45385;-64
2021/11/05 04:52:47;;;;;;;;;7.00;3.75;;;;;10.92;61.74;101666.59;4979420;28;45337;-64
2021/11/05 04:55:13;;;;;;;;;7.50;3.75;;;;;10.88;61.78;101657.84;4982158;28;45462;-64
2021/11/05 04:57:39;;;;;;;;;5.00;3.75;;;;;10.91;61.70;101662.22;4960062;28;45448;-64
2021/11/05 05:00:06;;;;;;;;;4.00;3.00;;;;;10.91;61.63;101670.97;4960270;28;45171;-64
2021/11/05 05:02:31;;;;;;;;;4.75;3.00;;;;;10.89;61.75;101663.09;4958714;28;47347;-64
2021/11/05 05:04:57;;;;;;;;;4.75;4.75;;;;;10.89;61.56;101673.63;4960150;28;45300;-64
2021/11/05 05:07:22;;;;;;;;;4.75;4.50;;;;;10.89;61.72;101677.97;4960201;28;45478;-64
2021/11/05 05:09:47;;;;;;;;;5.25;3.75;;;;;10.88;61.56;101679.75;4959932;28;45412;-64
2021/11/05 05:12:13;;;;;;;;;5.25;3.50;;;;;10.88;61.72;101684.16;4959862;28;46254;-64
2021/11/05 05:14:39;;;;;;;;;5.00;3.75;;;;;10.83;61.72;101688.50;4960105;28;45318;-64
2021/11/05 05:17:05;;;;;;;;;6.75;5.00;;;;;10.87;61.65;101682.38;4960230;28;45332;-64
2021/11/05 05:19:31;;;;;;;;;9.00;5.25;;;;;10.87;61.66;101695.53;4959886;28;45473;-64
2021/11/05 05:21:56;;;;;;;;;5.75;3.00;;;;;10.84;61.48;101688.53;4959809;28;46192;-64
2021/11/05 05:24:21;;;;;;;;;6.25;4.00;;;;;10.86;61.50;101693.78;4959759;28;45235;-64
2021/11/05 05:26:47;;;;;;;;;7.25;2.75;;;;;10.83;61.42;101693.75;4960010;28;45149;-64
2021/11/05 05:29:13;;;;;;;;;4.50;3.50;;;;;10.85;61.49;101689.38;4959820;28;45586;-66
2021/11/05 05:31:39;;;;;;;;;2.75;2.00;;;;;10.84;61.71;101695.53;4959793;28;45913;-64
2021/11/05 05:34:04;;;;;;;;;3.75;2.00;;;;;10.85;61.51;101694.66;4959792;28;45476;-64
2021/11/05 05:36:29;;;;;;;;;3.50;2.00;;;;;10.83;61.54;101707.81;4959871;28;45292;-64
2021/11/05 05:38:55;;;;;;;;;4.00;3.00;;;;;10.85;61.55;101713.06;4959567;28;45403;-64
2021/11/05 05:41:20;;;;;;;;;5.00;3.75;;;;;10.85;61.72;101724.44;4959909;28;45344;-64
2021/11/05 05:43:46;;;;;;;;;5.00;5.00;;;;;10.84;61.59;101717.44;4974277;28;45411;-64
2021/11/05 05:46:11;;;;;;;;;7.00;6.00;;;;;10.80;61.56;101714.81;4972411;28;45288;-64
2021/11/05 05:48:37;;;;;;;;;5.50;3.75;;;;;10.84;61.53;101729.69;4969009;28;45430;-64
2021/11/05 05:51:03;;;;;;;;;3.00;3.00;;;;;10.82;61.33;101737.59;4978974;28;45855;-64
2021/11/05 05:53:28;;;;;;;;;6.50;4.00;;;;;10.82;61.29;101728.84;4971198;28;45363;-64
2021/11/05 05:55:55;;;;;;;;;3.50;3.00;;;;;10.82;61.50;101740.22;4961297;28;45291;-64
2021/11/05 05:58:20;;;;;;;;;3.75;2.00;;;;;10.81;61.33;101735.84;4958245;28;45427;-63
2021/11/05 06:00:46;;;;;;;;;3.00;3.00;;;;;10.80;61.62;101733.22;4959241;28;45991;-64
2021/11/05 06:03:12;;;;;;;;;7.50;6.75;;;;;10.78;61.46;101730.59;4959519;28;45258;-64
2021/11/05 06:05:38;;;;;;;;;2.25;2.25;;;;;10.80;61.40;101747.22;4958349;28;45447;-64
2021/11/05 06:08:04;;;;;;;;;2.75;2.75;;;;;10.80;61.45;101757.75;4959355;28;45291;-64
2021/11/05 06:10:29;;;;;;;;;3.50;3.50;;;;;10.80;61.42;101759.50;4959301;28;46218;-65
2021/11/05 06:12:54;;;;;;;;;3.00;3.00;;;;;10.80;61.34;101759.50;4959290;28;45220;-64
2021/11/05 06:15:20;;;;;;;;;3.00;3.00;;;;;10.79;61.29;101760.38;4959461;28;45233;-64
2021/11/05 06:17:45;;;;;;;;;3.75;3.00;;;;;10.77;61.21;101760.38;4974332;28;45647;-64
2021/11/05 06:20:11;;;;;;;;;2.75;2.75;;;;;10.77;61.37;101759.47;4967545;28;46003;-64
2021/11/05 06:22:37;;;;;;;;;6.25;3.75;;;;;10.78;61.58;101770.03;4964841;28;45295;-64
2021/11/05 06:25:03;;;;;;;;;7.25;4.75;;;;;10.77;61.51;101762.13;4977462;28;45319;-64
2021/11/05 06:27:29;;;;;;;;;4.75;3.25;;;;;10.77;61.48;101776.16;4978580;28;45369;-64
2021/11/05 06:29:55;;;;;;;;;16.00;15.75;;;;;10.77;61.46;101777.88;4978476;28;45297;-64
2021/11/05 06:32:21;;;;;;;;;3.50;3.50;;;;;10.71;61.42;101774.38;4978564;28;45278;-64
2021/11/05 06:34:47;;;;;;;;;4.25;4.00;;;;;10.77;61.34;101791.03;4964368;28;45215;-64
2021/11/05 06:37:12;;;;;;;;;6.75;4.00;;;;;10.77;61.25;101794.56;4959188;28;45170;-64
2021/11/05 06:39:37;;;;;;;;;4.00;4.00;;;;;10.78;61.36;101806.84;4957468;28;46125;-64
2021/11/05 06:42:03;;;;;;;;;4.50;3.00;;;;;10.71;61.52;101792.78;4965524;28;45299;-64
2021/11/05 06:44:28;;;;;;;;;5.50;3.75;;;;;10.79;61.50;101805.06;4964459;28;45251;-64
2021/11/05 06:46:54;;;;;;;;;5.75;3.25;;;;;10.75;61.50;101808.59;4958834;28;45150;-63
2021/11/05 06:49:20;;;;;;;;;5.25;3.00;;;;;10.79;61.25;101819.13;4970898;28;45996;-63
2021/11/05 06:51:45;;;;;;;;;3.50;3.50;;;;;10.80;61.27;101826.09;4977003;28;45351;-63
2021/11/05 06:54:10;;;;;;;;;4.75;3.00;;;;;10.80;61.45;101819.97;4972041;28;45261;-63
2021/11/05 06:56:36;;;;;;;;;4.00;4.00;;;;;10.80;61.43;101825.25;4963431;28;45300;-63
2021/11/05 06:59:03;;;;;;;;;4.00;3.00;;;;;10.82;61.18;101828.75;4958430;28;46080;-63
2021/11/05 07:01:28;;;;;;;;;4.00;3.00;;;;;10.80;61.45;101839.25;4958524;28;45304;-63
2021/11/05 07:03:54;;;;;;;;;2.00;2.00;;;;;10.82;61.55;101848.03;4958644;28;45253;-63
2021/11/05 07:06:19;;;;;;;;;4.75;3.00;;;;;10.80;61.45;101841.03;4958647;28;45281;-63
2021/11/05 07:08:45;;;;;;;;;5.00;2.75;;;;;10.84;61.37;101848.03;4958360;28;45622;-63
2021/11/05 07:11:10;;;;;;;;;5.00;3.00;;;;;10.82;61.34;101849.81;4958440;28;45260;-63
2021/11/05 07:13:35;;;;;;;;;2.25;2.25;;;;;10.85;61.46;101855.06;4958520;28;45158;-65
2021/11/05 07:16:02;;;;;;;;;4.25;4.00;;;;;10.88;61.22;101861.19;4958331;28;45455;-63
2021/11/05 07:18:30;;;;;;;;;4.75;3.50;;;;;10.88;61.36;101866.47;4958547;28;46151;-63
2021/11/05 07:20:56;;;;;;;;;3.25;2.25;;;;;10.87;61.36;101862.06;4958162;28;45384;-63
2021/11/05 07:23:22;;;;;;;;;15.00;8.50;;;;;10.90;61.42;101866.47;4965787;28;45355;-63
2021/11/05 07:25:47;;;;;;;;;4.00;4.00;;;;;10.89;61.22;101867.31;4976627;28;45276;-63
2021/11/05 07:28:13;;;;;;;;;4.00;2.75;;;;;10.90;61.43;101879.59;4977641;28;45312;-63
2021/11/05 07:30:38;;;;;;;;;6.00;3.00;;;;;10.89;61.39;101877.84;4977597;28;45303;-63
2021/11/05 07:33:04;;;;;;;;;4.50;4.00;;;;;10.91;61.49;101888.41;4977384;28;45323;-63
2021/11/05 07:35:29;;;;;;;;;3.50;2.25;;;;;10.92;61.20;101891.00;4976455;28;45296;-63
2021/11/05 07:37:55;;;;;;;;;4.75;4.50;;;;;10.93;61.38;101895.41;4977346;28;45424;-63
2021/11/05 07:40:21;;;;;;;;;6.25;4.75;;;;;10.92;61.43;101901.53;4977569;28;45479;-63
2021/11/05 07:42:47;;;;;;;;;4.75;4.00;;;;;10.95;61.18;101900.66;4977509;28;45275;-63
2021/11/05 07:45:17;;;;;;;;;4.25;3.25;;;;;10.96;61.34;101908.56;4977270;28;45231;-64
2021/11/05 07:47:43;;;;;;;;;4.25;3.00;;;;;10.98;61.03;101914.72;4968263;28;46980;-63
2021/11/05 07:50:10;;;;;;;;;17.75;14.75;;;;;11.00;61.15;101923.47;4976343;28;45284;-63
2021/11/05 07:52:36;;;;;;;;;6.00;5.00;;;;;10.99;61.18;101913.84;4977151;28;45277;-63
2021/11/05 07:55:04;;;;;;;;;3.75;3.75;;;;;11.05;61.28;101926.13;4982828;28;45429;-64
2021/11/05 07:57:29;;;;;;;;;5.00;3.50;;;;;11.08;61.32;101925.25;4957500;28;46062;-64
2021/11/05 07:59:56;;;;;;;;;6.00;6.00;;;;;11.06;61.20;101926.13;4957519;28;45188;-64
2021/11/05 08:02:21;;;;;;;;;3.75;3.75;;;;;11.09;61.32;101935.75;4958034;28;45319;-65
2021/11/05 08:04:47;;;;;;;;;4.00;3.50;;;;;11.12;61.26;101934.88;4957472;28;45395;-64
2021/11/05 08:07:12;;;;;;;;;7.50;4.50;;;;;11.11;61.25;101933.16;4957608;28;46124;-64
2021/11/05 08:09:37;;;;;;;;;6.00;3.00;;;;;11.16;61.26;101937.53;4957382;28;45430;-64
2021/11/05 08:12:03;;;;;;;;;3.75;2.75;;;;;11.16;61.22;101944.56;4956343;28;45289;-64
2021/11/05 08:14:29;;;;;;;;;4.25;3.00;;;;;11.20;61.21;101949.81;4957555;28;45379;-64
2021/11/05 08:16:55;;;;;;;;;3.25;3.25;;;;;11.23;61.10;101959.47;4956227;28;46658;-64
2021/11/05 08:19:20;;;;;;;;;10.00;4.00;;;;;11.25;61.17;101960.38;4957553;28;45221;-64
2021/11/05 08:21:45;;;;;;;;;4.75;4.75;;;;;11.28;61.10;101968.28;4957805;28;45450;-64
2021/11/05 08:24:11;;;;;;;;;7.25;5.50;;;;;11.30;61.18;101963.88;4957290;28;45291;-64
2021/11/05 08:26:36;;;;;;;;;4.00;4.00;;;;;11.30;61.20;101968.28;4957335;28;46189;-64
2021/11/05 08:29:05;;;;;;;;;7.00;3.75;;;;;11.35;61.15;101975.31;4957118;28;45166;-64
2021/11/05 08:31:30;;;;;;;;;6.00;3.50;;;;;11.35;61.05;101987.59;4957625;28;45430;-64
2021/11/05 08:33:56;;;;;;;;;4.25;3.50;;;;;11.32;61.11;101977.94;4957099;28;45324;-64
2021/11/05 08:36:24;;;;;;;;;3.50;3.50;;;;;11.44;61.19;101982.34;4956994;28;46046;-64
2021/11/05 08:38:50;;;;;;;;;6.00;5.00;;;;;11.44;61.16;101984.09;4956860;28;45374;-64
2021/11/05 08:41:18;;;;;;;;;6.25;4.75;;;;;11.49;61.08;101995.53;4957298;28;45236;-64
2021/11/05 08:43:46;;;;;;;;;8.50;4.25;;;;;11.51;61.24;101999.03;4956886;28;45575;-64
2021/11/05 08:46:16;;;;;;;;;3.25;3.00;;;;;11.55;60.99;102006.94;4973999;28;47221;-64
2021/11/05 08:48:43;;;;;;;;;6.00;5.00;;;;;11.59;61.01;102004.31;4967084;28;45170;-64
2021/11/05 08:51:10;;;;;;;;;5.00;4.00;;;;;11.62;61.40;102012.22;4979635;28;45245;-64
2021/11/05 08:53:38;;;;;;;;;3.75;3.00;;;;;11.67;61.07;102016.63;4979420;28;45411;-64
2021/11/05 08:56:04;;;;;;;;;4.50;3.25;;;;;11.69;61.19;102017.47;4977542;27;46277;-65
2021/11/05 08:58:30;;;;;;;;;5.75;4.50;;;;;11.76;61.13;102022.75;4963002;28;45457;-65
2021/11/05 09:00:56;;;;;;;;;19.75;12.50;;;;;11.79;61.12;102028.03;4959894;28;45251;-65
2021/11/05 09:03:24;;;;;;;;;5.50;4.25;;;;;11.83;60.94;102025.41;4959953;28;45276;-65
2021/11/05 09:05:50;;;;;;;;;5.00;4.50;;;;;11.88;61.00;102022.78;4959736;28;45442;-64
2021/11/05 09:08:15;;;;;;;;;4.50;4.50;;;;;11.90;61.13;102028.03;4959787;28;45346;-64
2021/11/05 09:10:41;;;;;;;;;9.75;7.50;;;;;11.95;60.92;102035.09;4958826;28;45331;-65
2021/11/05 09:13:08;;;;;;;;;3.25;3.25;;;;;12.02;61.18;102039.53;4958564;28;45324;-65
2021/11/05 09:15:34;;;;;;;;;6.50;3.75;;;;;12.08;61.05;102036.00;4959633;28;45548;-65
2021/11/05 09:18:04;;;;;;;;;4.00;3.00;;;;;12.15;61.25;102043.03;4959708;28;45396;-63
2021/11/05 09:20:30;;;;;;;;;7.50;6.00;;;;;12.19;61.29;102039.50;4969923;28;45241;-64
2021/11/05 09:22:56;;;;;;;;;6.00;4.50;;;;;12.26;61.31;102043.00;4959599;28;45505;-64
2021/11/05 09:25:21;;;;;;;;;5.00;4.75;;;;;12.32;61.08;102052.69;4959447;28;45363;-64
2021/11/05 09:27:47;;;;;;;;;4.25;4.25;;;;;12.37;61.11;102044.78;4959626;28;45355;-64
2021/11/05 09:30:14;;;;;;;;;4.50;4.00;;;;;12.42;61.10;102061.47;4954353;28;45336;-64
2021/11/05 09:32:40;;;;;;;;;5.25;5.25;;;;;12.49;61.20;102060.56;4958356;28;45375;-65
2021/11/05 09:35:07;;;;;;;;;4.00;3.00;;;;;12.54;61.06;102069.38;4957865;28;47956;-64
2021/11/05 09:37:34;;;;;;;;;3.00;3.00;;;;;12.60;60.96;102056.19;4959405;28;45322;-63
2021/11/05 09:39:59;;;;;;;;;4.00;3.00;;;;;12.65;61.21;102067.59;4959612;28;45467;-63
2021/11/05 09:42:25;;;;;;;;;6.00;4.75;;;;;12.72;61.13;102064.94;4959474;28;45139;-63
2021/11/05 09:44:51;;;;;;;;;5.50;5.50;;;;;12.77;60.82;102073.72;4958058;28;46345;-63
2021/11/05 09:47:16;;;;;;;;;3.00;2.75;;;;;12.83;61.08;102073.72;4958247;28;45365;-63
2021/11/05 09:49:42;;;;;;;;;4.50;3.75;;;;;12.90;61.04;102075.44;4974607;28;45350;-64
2021/11/05 09:52:08;;;;;;;;;3.00;3.00;;;;;12.93;60.89;102077.19;4979097;28;45466;-64
2021/11/05 09:54:35;;;;;;;;;6.00;4.00;;;;;13.04;60.79;102079.81;4989176;28;46203;-64
2021/11/05 09:57:03;;;;;;;;;2.25;2.25;;;;;13.11;60.96;102076.28;4956955;28;45282;-64
2021/11/05 09:59:28;;;;;;;;;4.00;3.25;;;;;13.18;61.10;102088.53;4959263;28;45237;-64
2021/11/05 10:01:54;;;;;;;;;5.00;5.00;;;;;13.26;61.08;102099.09;4959410;28;45261;-64
2021/11/05 10:04:19;;;;;;;;;3.75;3.75;;;;;13.36;60.97;102095.53;4959172;28;45523;-64
2021/11/05 10:07:08;;;;;;;;;5.75;4.75;;;;;13.47;60.72;102096.38;4974394;28;46036;-64
2021/11/05 10:09:45;;;;;;;;;5.75;5.75;;;;;13.59;61.07;102103.34;4959084;28;45274;-64
2021/11/05 10:12:19;;;;;;;;;7.25;5.75;;;;;13.69;61.13;102103.34;4980474;28;45343;-64
2021/11/05 10:14:52;;;;;;;;;5.50;5.50;;;;;13.76;61.11;102103.28;4966550;28;47230;-64
2021/11/05 10:17:19;;;;;;;;;8.25;4.75;;;;;13.85;60.57;102110.28;4978508;28;45593;-64
2021/11/05 10:19:59;;;;;;;;;5.25;4.50;;;;;13.91;60.91;102120.81;4978659;28;45350;-65
2021/11/05 10:22:47;;;;;;;;;9.00;6.00;;;;;13.99;60.98;102120.75;4978234;28;45214;-64
2021/11/05 10:25:28;;;;;;;;;6.25;5.75;;;;;14.05;60.89;102120.72;4977079;28;47074;-64
2021/11/05 10:28:16;;;;;;;;;5.00;5.00;;;;;14.12;60.83;102125.09;4978240;28;45266;-64
2021/11/05 10:30:44;;;;;;;;;4.75;4.00;;;;;14.17;60.63;102124.16;4977115;28;45343;-64
2021/11/05 10:33:15;;;;;;;;;5.00;4.00;;;;;14.22;60.17;102119.72;4978598;28;45275;-65
2021/11/05 10:35:44;;;;;;;;;4.25;4.25;;;;;14.27;60.56;102124.06;4977928;28;46394;-64
2021/11/05 10:38:11;;;;;;;;;5.75;4.00;;;;;14.28;60.64;102123.19;4964038;28;45293;-64
2021/11/05 10:40:48;;;;;;;;;6.50;4.50;;;;;14.39;60.56;102127.50;4959013;28;45223;-65
2021/11/05 10:43:35;;;;;;;;;2.75;2.50;;;;;14.43;60.56;102130.13;4957306;28;45261;-64
2021/11/05 10:46:03;;;;;;;;;7.50;4.25;;;;;14.52;60.32;102134.47;4969618;27;46293;-64
2021/11/05 10:48:30;;;;;;;;;5.00;4.75;;;;;14.60;60.24;102132.63;4962531;28;45354;-64
2021/11/05 10:51:03;;;;;;;;;4.00;3.00;;;;;14.71;60.36;102139.63;4978222;28;45264;-64
2021/11/05 10:53:41;;;;;;;;;4.00;2.75;;;;;14.82;60.11;102135.09;4977883;28;45570;-64
2021/11/05 10:56:16;;;;;;;;;3.50;3.50;;;;;14.92;60.09;102130.59;4973571;28;45418;-64
2021/11/05 10:58:51;;;;;;;;;3.50;2.00;;;;;15.01;60.08;102130.50;4958470;28;45188;-64
2021/11/05 11:01:20;;;;;;;;;4.25;3.00;;;;;15.11;60.41;102128.63;4958528;28;45197;-65
2021/11/05 11:03:45;;;;;;;;;4.25;4.00;;;;;15.21;59.78;102130.28;4958547;28;45369;-65
2021/11/05 11:06:17;;;;;;;;;4.75;4.75;;;;;15.27;59.88;102130.22;4957045;28;47348;-65
2021/11/05 11:08:45;;;;;;;;;3.75;3.75;;;;;15.32;59.80;102126.63;4958104;28;45182;-65
2021/11/05 11:11:30;;;;;;;;;6.50;5.00;;;;;15.37;59.50;102128.34;4958570;28;45475;-65
2021/11/05 11:13:57;;;;;;;;;4.00;4.00;;;;;15.40;59.48;102133.59;4958092;28;45558;-63
2021/11/05 11:16:27;;;;;;;;;5.00;3.75;;;;;15.43;59.96;102130.91;4958280;28;46271;-63
2021/11/05 11:18:56;;;;;;;;;5.25;5.00;;;;;15.44;59.76;102134.41;4956890;28;45445;-63
2021/11/05 11:21:24;;;;;;;;;7.50;5.50;;;;;15.46;59.64;102129.09;4958386;28;45406;-63